Time;durP1;ratioP1;P1;durP2;ratioP2;P2;SDS_P1;SDS_P2;PMS_P1;PMS_P2;Temp;Humidity;BMP_temperature;BMP_pressure;BME280_temperature;BME280_humidity;BME280_pressure;Samples;Min_cycle;Max_cycle;Signal;HPM_P1;HPM_P2
2021/05/17 00:01:46;;;;;;;2.84;0.30;;;;;;;10.26;83.07;98128.72;2034493;77;21163;-73
2021/05/17 00:04:49;;;;;;;2.30;0.29;;;;;;;10.25;83.03;98129.63;2037508;79;20214;-72
2021/05/17 00:07:52;;;;;;;2.69;0.40;;;;;;;10.26;83.03;98139.09;2037087;79;20199;-72
2021/05/17 00:10:55;;;;;;;1.79;0.38;;;;;;;10.32;82.90;98135.50;2038001;79;20181;-73
2021/05/17 00:13:58;;;;;;;2.30;0.40;;;;;;;10.34;82.71;98138.06;2037230;79;20653;-73
2021/05/17 00:17:02;;;;;;;1.15;0.35;;;;;;;10.31;82.83;98140.72;2031638;77;20300;-73
2021/05/17 00:20:08;;;;;;;1.19;0.40;;;;;;;10.32;82.78;98151.06;2031821;79;20254;-72
2021/05/17 00:23:10;;;;;;;0.40;0.30;;;;;;;10.33;82.50;98144.13;2031619;79;20170;-72
2021/05/17 00:26:14;;;;;;;1.86;0.38;;;;;;;10.28;82.65;98152.91;2032455;79;20186;-72
2021/05/17 00:29:16;;;;;;;1.92;0.40;;;;;;;10.24;82.64;98146.06;2032231;79;20157;-72
2021/05/17 00:32:19;;;;;;;3.55;0.54;;;;;;;10.25;82.53;98146.94;2035580;77;21052;-73
2021/05/17 00:35:22;;;;;;;2.53;0.30;;;;;;;10.25;82.50;98152.13;2041462;79;20184;-73
2021/05/17 00:38:25;;;;;;;2.09;1.08;;;;;;;10.27;82.25;98150.34;2036891;79;20190;-72
2021/05/17 00:41:29;;;;;;;1.81;0.30;;;;;;;10.27;82.16;98153.78;2037404;79;20186;-72
2021/05/17 00:44:32;;;;;;;1.56;0.47;;;;;;;10.27;82.21;98156.38;2037060;79;20264;-72
2021/05/17 00:47:41;;;;;;;1.21;0.28;;;;;;;10.32;82.28;98155.41;2032153;77;20182;-72
2021/05/17 00:50:44;;;;;;;2.09;0.30;;;;;;;10.33;82.19;98154.53;2031719;79;20199;-73
2021/05/17 00:53:47;;;;;;;0.34;0.17;;;;;;;10.32;81.96;98148.47;2032394;79;21358;-72
2021/05/17 00:56:50;;;;;;;1.05;0.30;;;;;;;10.31;82.14;98159.75;2031991;79;20229;-72
2021/05/17 00:59:52;;;;;;;0.79;0.43;;;;;;;10.26;82.07;98153.81;2032419;79;20654;-72
2021/05/17 01:02:55;;;;;;;1.52;0.31;;;;;;;10.22;82.30;98147.81;2032829;77;20225;-72
2021/05/17 01:06:00;;;;;;;0.47;0.30;;;;;;;10.18;82.56;98143.56;2028777;79;20211;-72
2021/05/17 01:09:08;;;;;;;0.82;0.30;;;;;;;10.16;82.80;98142.75;2032979;79;20199;-72
2021/05/17 01:12:11;;;;;;;0.65;0.30;;;;;;;10.15;83.17;98138.47;2033080;79;20166;-72
2021/05/17 01:15:15;;;;;;;0.88;0.30;;;;;;;10.20;83.19;98141.78;2032427;77;20695;-71
2021/05/17 01:18:19;;;;;;;1.33;0.20;;;;;;;10.20;82.83;98139.19;2038376;79;20194;-72
2021/05/17 01:21:24;;;;;;;1.99;0.49;;;;;;;10.21;83.06;98140.06;2037822;79;20172;-72
2021/05/17 01:24:27;;;;;;;1.55;0.30;;;;;;;10.22;82.95;98139.19;2038238;79;20317;-73
2021/05/17 01:27:31;;;;;;;1.23;0.30;;;;;;;10.19;82.87;98144.41;2037690;79;20177;-72
2021/05/17 01:30:34;;;;;;;1.59;0.30;;;;;;;10.14;82.97;98139.34;2036229;76;20233;-73
2021/05/17 01:33:40;;;;;;;0.66;0.20;;;;;;;10.09;82.98;98137.75;2032688;79;20191;-72
2021/05/17 01:36:45;;;;;;;1.09;0.30;;;;;;;10.06;82.92;98138.69;2032766;79;20174;-72
2021/05/17 01:39:48;;;;;;;0.41;0.20;;;;;;;10.09;83.00;98137.75;2033002;79;20616;-72
2021/05/17 01:42:54;;;;;;;1.30;0.20;;;;;;;10.07;83.25;98135.19;2032660;79;20517;-72
2021/05/17 01:46:01;;;;;;;0.65;0.20;;;;;;;10.05;83.65;98136.94;2033414;76;20173;-73
2021/05/17 01:49:04;;;;;;;1.06;0.24;;;;;;;9.99;84.04;98134.50;2038379;79;20220;-72
2021/05/17 01:52:07;;;;;;;1.21;0.39;;;;;;;9.95;84.31;98136.31;2037847;79;20503;-72
2021/05/17 01:55:12;;;;;;;1.35;0.30;;;;;;;9.92;84.71;98132.94;2038573;79;20195;-73
2021/05/17 01:58:23;;;;;;;1.75;0.30;;;;;;;9.88;85.24;98139.09;2038375;79;20212;-73
2021/05/17 02:01:26;;;;;;;0.90;0.20;;;;;;;9.82;85.40;98140.06;2035503;77;22294;-72
2021/05/17 02:04:29;;;;;;;2.06;0.45;;;;;;;9.83;85.80;98141.75;2034362;79;20295;-72
2021/05/17 02:07:32;;;;;;;1.33;0.55;;;;;;;9.84;85.91;98138.28;2033904;79;20647;-72
2021/05/17 02:10:35;;;;;;;1.24;0.29;;;;;;;9.87;86.10;98134.75;2034204;79;20226;-72
2021/05/17 02:13:39;;;;;;;1.83;0.40;;;;;;;9.90;86.13;98137.31;2034980;79;20157;-72
2021/05/17 02:16:41;;;;;;;1.63;0.30;;;;;;;9.84;86.14;98143.47;2036229;77;20169;-73
2021/05/17 02:19:45;;;;;;;2.28;0.30;;;;;;;9.81;86.20;98137.50;2039342;79;20201;-72
2021/05/17 02:22:48;;;;;;;0.69;0.36;;;;;;;9.80;86.35;98135.78;2039547;79;20232;-73
2021/05/17 02:25:51;;;;;;;2.16;0.20;;;;;;;9.78;86.37;98143.59;2040251;79;20850;-72
2021/05/17 02:28:55;;;;;;;1.51;0.26;;;;;;;9.80;86.47;98139.22;2039149;79;20550;-72
2021/05/17 02:31:58;;;;;;;2.20;0.44;;;;;;;9.81;86.58;98138.34;2035617;77;20627;-72
2021/05/17 02:35:00;;;;;;;2.05;0.30;;;;;;;9.82;86.35;98134.88;2034341;79;20192;-71
2021/05/17 02:38:05;;;;;;;2.80;0.31;;;;;;;9.81;86.29;98135.75;2034329;79;20181;-72
2021/05/17 02:41:09;;;;;;;1.89;0.30;;;;;;;9.83;86.41;98139.16;2034296;79;20195;-72
2021/05/17 02:44:13;;;;;;;1.85;0.30;;;;;;;9.78;86.29;98133.22;2037532;79;20166;-73
2021/05/17 02:47:15;;;;;;;0.84;0.30;;;;;;;9.82;86.38;98136.59;2033976;77;20205;-72
2021/05/17 02:50:19;;;;;;;1.99;0.40;;;;;;;9.76;86.50;98147.97;2034256;79;20181;-72
2021/05/17 02:53:31;;;;;;;3.60;0.40;;;;;;;9.72;86.59;98141.16;2034210;79;20235;-72
2021/05/17 02:56:36;;;;;;;3.31;0.79;;;;;;;9.73;86.58;98142.84;2033944;79;20635;-72
2021/05/17 03:00:11;;;;;;;1.31;0.31;;;;;;;9.73;86.48;98136.81;2034856;79;20567;-72
2021/05/17 03:03:15;;;;;;;2.53;0.44;;;;;;;9.71;86.58;98146.38;2033311;77;26372;-72
2021/05/17 03:06:21;;;;;;;1.74;0.24;;;;;;;9.69;86.83;98149.84;2033255;79;20210;-72
2021/05/17 03:09:25;;;;;;;1.29;0.30;;;;;;;9.73;86.88;98152.38;2033647;79;20191;-72
2021/05/17 03:12:29;;;;;;;1.69;0.60;;;;;;;9.75;86.96;98151.44;2032025;79;20199;-72
2021/05/17 03:15:32;;;;;;;4.85;0.39;;;;;;;9.80;86.74;98154.78;2032019;77;23018;-72
2021/05/17 03:18:36;;;;;;;2.92;0.74;;;;;;;9.80;86.58;98157.38;2034187;79;20165;-73
2021/05/17 03:21:39;;;;;;;1.63;0.34;;;;;;;9.80;86.57;98159.97;2032761;79;20199;-72
2021/05/17 03:24:44;;;;;;;1.40;0.35;;;;;;;9.80;86.36;98162.56;2032991;79;20158;-72
2021/05/17 03:27:47;;;;;;;1.26;0.30;;;;;;;9.83;86.33;98167.69;2032469;79;20153;-73
2021/05/17 03:30:50;;;;;;;1.42;0.30;;;;;;;9.82;86.31;98159.94;2032659;77;21195;-72
2021/05/17 03:33:56;;;;;;;0.34;0.20;;;;;;;9.83;86.30;98164.22;2032464;79;20192;-72
2021/05/17 03:36:58;;;;;;;1.20;0.26;;;;;;;9.83;86.35;98167.69;2032658;79;20174;-72
2021/05/17 03:40:03;;;;;;;4.49;0.56;;;;;;;9.80;86.10;98172.94;2032882;79;20219;-72
2021/05/17 03:43:06;;;;;;;4.29;0.45;;;;;;;9.82;86.14;98170.31;2032931;79;20208;-72
2021/05/17 03:46:08;;;;;;;0.90;0.40;;;;;;;9.82;85.94;98183.28;2034166;76;20225;-73
2021/05/17 03:49:11;;;;;;;1.70;0.30;;;;;;;9.82;85.64;98184.13;2037612;79;20157;-72
2021/05/17 03:52:13;;;;;;;0.99;0.30;;;;;;;9.77;85.55;98177.34;2037706;79;20611;-73
2021/05/17 03:55:16;;;;;;;1.89;0.35;;;;;;;9.80;85.61;98183.31;2037583;79;20208;-73
2021/05/17 03:58:19;;;;;;;2.50;0.44;;;;;;;9.81;85.70;98189.34;2037839;79;20169;-72
2021/05/17 04:01:21;;;;;;;2.25;0.30;;;;;;;9.85;85.75;98188.38;2035040;79;21284;-72
2021/05/17 04:04:26;;;;;;;2.28;0.56;;;;;;;9.86;85.62;98198.72;2032050;79;20187;-72
2021/05/17 04:07:54;;;;;;;1.00;0.30;;;;;;;9.83;85.59;98193.59;2032560;79;20314;-73
2021/05/17 04:14:18;;;;;;;4.21;0.45;;;;;;;9.85;85.37;98204.78;2032566;79;20651;-74
2021/05/17 04:17:21;;;;;;;3.72;0.31;;;;;;;9.84;85.29;98202.25;2036035;77;21269;-74
2021/05/17 04:20:24;;;;;;;2.46;0.32;;;;;;;9.80;85.31;98201.44;2037583;79;20161;-72
2021/05/17 04:23:28;;;;;;;3.42;0.44;;;;;;;9.78;85.27;98211.00;2037577;79;20185;-72
2021/05/17 04:26:31;;;;;;;2.40;0.26;;;;;;;9.81;85.36;98202.31;2037724;79;20381;-72
2021/05/17 04:29:34;;;;;;;1.09;0.25;;;;;;;9.82;85.15;98209.19;2037402;79;20194;-73
2021/05/17 04:32:36;;;;;;;2.96;0.82;;;;;;;9.85;84.83;98216.91;2032154;77;20820;-73
2021/05/17 04:35:39;;;;;;;0.99;0.30;;;;;;;9.85;84.46;98227.28;2032219;79;20583;-73
2021/05/17 04:38:41;;;;;;;0.90;0.30;;;;;;;9.84;84.46;98216.06;2031980;79;20158;-73
2021/05/17 04:41:44;;;;;;;0.94;0.30;;;;;;;9.84;84.61;98221.22;2032031;79;20199;-72
2021/05/17 04:44:46;;;;;;;2.36;0.30;;;;;;;9.88;84.78;98222.06;2033451;79;20185;-73
2021/05/17 04:47:50;;;;;;;0.99;0.32;;;;;;;9.89;84.32;98227.19;2036404;77;24966;-73
2021/05/17 04:50:53;;;;;;;0.65;0.30;;;;;;;9.90;83.99;98235.84;2037578;79;20165;-73
2021/05/17 04:53:56;;;;;;;0.51;0.31;;;;;;;9.93;84.00;98234.03;2037263;79;20240;-77
2021/05/17 04:56:58;;;;;;;0.94;0.22;;;;;;;9.96;84.10;98240.88;2037635;79;20188;-77
2021/05/17 05:00:04;;;;;;;2.65;0.55;;;;;;;9.97;83.57;98245.19;2037406;79;20641;-77
2021/05/17 05:03:06;;;;;;;0.64;0.30;;;;;;;9.95;83.59;98242.63;2032467;76;21232;-77
2021/05/17 05:06:09;;;;;;;0.93;0.30;;;;;;;10.01;83.91;98249.41;2035075;79;20288;-77
2021/05/17 05:09:12;;;;;;;2.66;0.34;;;;;;;10.08;83.94;98253.63;2032716;79;20925;-78
2021/05/17 05:12:14;;;;;;;3.20;0.30;;;;;;;10.11;83.78;98252.69;2032274;79;20174;-78
2021/05/17 05:15:17;;;;;;;0.65;0.20;;;;;;;10.10;83.40;98254.44;2032210;77;20209;-78
2021/05/17 05:18:20;;;;;;;1.02;0.30;;;;;;;10.09;83.11;98251.88;2037334;79;20192;-78
2021/05/17 05:21:23;;;;;;;1.36;0.24;;;;;;;10.07;82.59;98253.66;2038380;79;20180;-79
2021/05/17 05:24:26;;;;;;;1.54;0.38;;;;;;;10.11;82.42;98248.34;2040472;79;20206;-78
2021/05/17 05:27:53;;;;;;;1.06;0.39;;;;;;;10.20;81.90;98258.53;2037558;79;20181;-77
2021/05/17 05:33:58;;;;;;;2.21;0.20;;;;;;;10.25;81.42;98261.94;2032399;79;20239;-78
2021/05/17 05:37:01;;;;;;;0.68;0.20;;;;;;;10.24;81.81;98264.56;2032256;79;20170;-79
2021/05/17 05:40:06;;;;;;;1.10;0.30;;;;;;;10.20;81.76;98253.31;2033226;79;20212;-79
2021/05/17 05:43:08;;;;;;;1.29;0.26;;;;;;;10.24;82.08;98260.22;2032169;79;20223;-79
2021/05/17 05:46:11;;;;;;;0.54;0.20;;;;;;;10.23;82.31;98255.03;2034138;77;20173;-79
2021/05/17 05:49:14;;;;;;;3.42;0.30;;;;;;;10.21;82.45;98257.66;2038669;79;20784;-79
2021/05/17 05:52:17;;;;;;;0.75;0.30;;;;;;;10.31;83.13;98252.28;2037817;79;20206;-78
2021/05/17 05:55:20;;;;;;;1.14;0.30;;;;;;;10.32;82.89;98256.59;2038482;79;20723;-76
2021/05/17 05:58:22;;;;;;;1.10;0.20;;;;;;;10.32;82.94;98257.44;2039429;79;20205;-79
2021/05/17 06:01:25;;;;;;;0.86;0.30;;;;;;;10.26;82.78;98255.84;2036737;79;21701;-80
2021/05/17 06:04:28;;;;;;;4.18;0.35;;;;;;;10.28;83.11;98263.59;2034175;79;20389;-79
2021/05/17 06:07:31;;;;;;;0.71;0.20;;;;;;;10.29;83.04;98267.91;2032840;79;20613;-78
2021/05/17 06:10:37;;;;;;;0.90;0.29;;;;;;;10.31;83.07;98263.53;2036400;79;20759;-76
2021/05/17 06:13:41;;;;;;;3.69;0.35;;;;;;;10.31;83.15;98275.66;2033219;79;20203;-77
2021/05/17 06:16:44;;;;;;;1.59;0.50;;;;;;;10.32;83.23;98275.59;2035177;77;20226;-77
2021/05/17 06:19:47;;;;;;;1.44;0.40;;;;;;;10.35;83.01;98282.47;2042430;79;20997;-82
2021/05/17 06:22:50;;;;;;;3.24;0.30;;;;;;;10.37;83.07;98281.53;2039700;79;20216;-77
2021/05/17 06:25:54;;;;;;;1.20;0.26;;;;;;;10.37;82.58;98284.13;2038023;79;20304;-77
2021/05/17 06:28:57;;;;;;;0.52;0.30;;;;;;;10.37;82.71;98281.53;2038000;79;20292;-77
2021/05/17 06:32:00;;;;;;;1.77;0.38;;;;;;;10.37;82.91;98280.69;2035096;76;34848;-81
2021/05/17 06:35:09;;;;;;;1.65;0.31;;;;;;;10.41;83.24;98278.03;2033089;79;20223;-77
2021/05/17 06:38:13;;;;;;;1.59;0.40;;;;;;;10.49;83.30;98288.22;2032881;79;20174;-77
2021/05/17 06:41:16;;;;;;;2.40;0.40;;;;;;;10.55;83.16;98294.13;2033156;79;20657;-75
2021/05/17 06:44:18;;;;;;;1.42;0.30;;;;;;;10.64;83.30;98289.63;2032625;79;20198;-77
2021/05/17 06:47:21;;;;;;;1.41;0.31;;;;;;;10.73;82.68;98284.22;2037676;76;27165;-78
2021/05/17 06:50:25;;;;;;;2.20;0.30;;;;;;;10.79;82.29;98289.28;2040800;79;20164;-81
2021/05/17 06:53:28;;;;;;;1.25;0.36;;;;;;;10.84;82.33;98284.84;2040394;79;20279;-81
2021/05/17 06:56:44;;;;;;;1.34;0.30;;;;;;;10.96;82.20;98283.69;2038682;79;20169;-79
2021/05/17 06:59:49;;;;;;;2.44;0.39;;;;;;;10.97;81.56;98294.06;2038802;79;20631;-79
2021/05/17 07:02:52;;;;;;;2.51;0.40;;;;;;;10.91;80.57;98294.19;2032562;77;22737;-78
2021/05/17 07:05:55;;;;;;;1.13;0.30;;;;;;;10.96;80.49;98292.34;2032787;79;20174;-77
2021/05/17 07:12:19;;;;;;;1.88;0.31;;;;;;;11.06;80.60;98303.34;2032454;79;20195;-78
2021/05/17 07:15:22;;;;;;;3.69;0.60;;;;;;;11.09;80.18;98304.13;2032895;76;23638;-78
2021/05/17 07:18:24;;;;;;;1.24;0.30;;;;;;;11.14;79.89;98297.09;2038267;79;20182;-77
2021/05/17 07:24:49;;;;;;;1.08;0.47;;;;;;;11.18;79.37;98298.72;2037887;79;20200;-77
2021/05/17 07:27:52;;;;;;;0.93;0.30;;;;;;;11.28;80.18;98296.75;2040262;79;20226;-81
2021/05/17 07:30:55;;;;;;;2.49;0.56;;;;;;;11.27;78.80;98295.03;2035699;77;22304;-76
2021/05/17 07:33:58;;;;;;;2.21;0.30;;;;;;;11.32;78.63;98295.78;2032467;79;20211;-77
2021/05/17 07:37:01;;;;;;;5.30;0.50;;;;;;;11.41;78.25;98298.16;2032932;79;20166;-77
2021/05/17 07:40:05;;;;;;;0.76;0.40;;;;;;;11.59;78.58;98295.97;2032083;79;20264;-77
2021/05/17 07:43:08;;;;;;;2.25;0.30;;;;;;;11.70;77.72;98301.75;2032733;79;20473;-77
2021/05/17 07:46:19;;;;;;;2.01;0.44;;;;;;;11.97;77.56;98302.78;2034513;77;20922;-67
2021/05/17 07:49:42;;;;;;;3.95;0.60;;;;;;;12.44;76.50;98301.44;2037689;79;20208;-68
2021/05/17 07:52:44;;;;;;;2.14;0.50;;;;;;;12.54;73.09;98296.78;2037435;79;20240;-67
2021/05/17 07:55:51;;;;;;;0.69;0.30;;;;;;;12.66;73.83;98297.28;2037960;79;20593;-67
2021/05/17 07:58:54;;;;;;;3.46;0.50;;;;;;;12.76;72.80;98297.88;2037057;79;20177;-67
2021/05/17 08:01:57;;;;;;;3.14;0.56;;;;;;;12.71;72.25;98297.13;2034035;77;20177;-67
2021/05/17 08:04:59;;;;;;;1.80;0.49;;;;;;;12.63;72.46;98297.38;2031827;79;20214;-67
2021/05/17 08:08:02;;;;;;;1.74;0.41;;;;;;;12.66;73.46;98299.03;2033274;79;20718;-67
2021/05/17 08:11:04;;;;;;;3.69;0.50;;;;;;;12.79;72.15;98302.13;2032140;79;20191;-67
2021/05/17 08:14:07;;;;;;;1.88;0.65;;;;;;;13.21;72.35;98300.78;2032293;79;20235;-68
2021/05/17 08:17:10;;;;;;;2.47;0.49;;;;;;;13.76;70.56;98300.69;2030832;79;20851;-67
2021/05/17 08:20:13;;;;;;;3.17;0.60;;;;;;;14.04;67.17;98300.59;2032400;79;20195;-68
2021/05/17 08:23:17;;;;;;;3.40;0.76;;;;;;;14.41;65.77;98302.69;2033184;79;20664;-67
2021/05/17 08:26:19;;;;;;;1.49;0.40;;;;;;;14.45;64.96;98305.16;2032926;79;20181;-68
2021/05/17 08:29:23;;;;;;;2.54;0.66;;;;;;;14.36;64.82;98308.09;2032498;79;20231;-67
2021/05/17 08:32:26;;;;;;;5.06;0.65;;;;;;;14.49;64.78;98311.13;2035576;77;20737;-69
2021/05/17 08:35:28;;;;;;;1.46;0.60;;;;;;;14.94;65.14;98308.53;2037944;79;20197;-68
2021/05/17 08:38:31;;;;;;;4.21;0.82;;;;;;;15.24;61.84;98311.66;2037967;79;20293;-69
2021/05/17 08:41:35;;;;;;;4.14;0.69;;;;;;;15.20;60.29;98310.09;2037519;79;21133;-70
2021/05/17 08:44:41;;;;;;;4.74;0.70;;;;;;;15.54;60.27;98306.94;2037885;79;20276;-69
2021/05/17 08:47:44;;;;;;;3.55;0.50;;;;;;;15.79;58.17;98319.00;2031787;76;23938;-69
2021/05/17 08:50:47;;;;;;;3.58;0.57;;;;;;;15.78;58.10;98317.31;2032432;79;20242;-69
2021/05/17 08:53:51;;;;;;;2.55;0.66;;;;;;;15.84;57.52;98311.84;2032880;79;20202;-69
2021/05/17 08:56:54;;;;;;;5.40;0.66;;;;;;;15.85;59.20;98324.00;2031547;79;20214;-69
2021/05/17 08:59:56;;;;;;;1.90;0.52;;;;;;;15.54;58.72;98317.41;2032461;79;20215;-69
2021/05/17 09:02:59;;;;;;;5.59;0.56;;;;;;;15.27;59.54;98326.41;2036643;79;21086;-69
2021/05/17 09:06:08;;;;;;;3.13;0.63;;;;;;;14.88;60.19;98321.81;2038207;79;20189;-68
2021/05/17 09:09:36;;;;;;;2.24;0.69;;;;;;;14.57;61.04;98334.38;2037234;79;20161;-70
2021/05/17 09:13:12;;;;;;;1.96;0.51;;;;;;;14.05;62.64;98344.06;2036958;79;20161;-78
2021/05/17 09:16:16;;;;;;;4.29;0.45;;;;;;;13.80;64.04;98341.41;2034258;77;21353;-79
2021/05/17 09:19:20;;;;;;;5.46;0.47;;;;;;;13.45;66.00;98360.84;2033676;79;20554;-76
2021/05/17 09:22:23;;;;;;;2.60;0.50;;;;;;;13.15;67.25;98358.31;2032414;79;20181;-77
2021/05/17 09:25:25;;;;;;;2.91;0.40;;;;;;;12.98;69.70;98363.19;2033477;79;20647;-79
2021/05/17 09:28:31;;;;;;;1.79;0.34;;;;;;;12.82;71.59;98365.41;2039940;79;20174;-83
2021/05/17 09:31:34;;;;;;;1.70;0.43;;;;;;;12.67;72.19;98358.03;2050037;77;20230;-81
2021/05/17 09:34:38;;;;;;;1.73;0.36;;;;;;;12.58;73.21;98359.19;2051741;79;20282;-82
2021/05/17 09:37:45;;;;;;;2.86;0.40;;;;;;;12.65;74.87;98365.91;2039724;79;20517;-78
2021/05/17 09:41:14;;;;;;;1.02;0.25;;;;;;;12.71;74.95;98368.31;2038762;79;20734;-81
2021/05/17 09:44:17;;;;;;;;;;;;;;;12.78;75.93;98370.75;2048011;79;20162;-81
2021/05/17 09:47:22;;;;;;;4.13;0.45;;;;;;;12.73;75.35;98386.50;2043232;76;21774;-78
2021/05/17 09:50:25;;;;;;;5.56;0.50;;;;;;;12.57;75.37;98406.94;2033452;79;20658;-76
2021/05/17 09:53:41;;;;;;;2.00;0.40;;;;;;;12.35;76.38;98380.63;2033706;79;20432;-79
2021/05/17 09:56:44;;;;;;;3.86;1.02;;;;;;;12.19;77.51;98394.09;2036916;79;20165;-80
2021/05/17 09:59:49;;;;;;;2.60;0.40;;;;;;;12.12;78.33;98390.81;2037806;79;20187;-81
2021/05/17 10:02:53;;;;;;;2.10;0.44;;;;;;;12.09;79.19;98388.31;2044588;77;20174;-81
2021/05/17 10:05:57;;;;;;;3.01;0.47;;;;;;;12.02;79.06;98390.19;2042369;79;20170;-80
2021/05/17 10:09:00;;;;;;;2.49;0.65;;;;;;;11.98;79.03;98390.34;2036337;79;20239;-82
2021/05/17 10:12:03;;;;;;;1.60;0.39;;;;;;;12.03;79.50;98384.13;2041911;79;20162;-82
2021/05/17 10:15:14;;;;;;;3.11;0.45;;;;;;;12.32;80.16;98385.06;2053880;79;20208;-84
2021/05/17 10:18:24;;;;;;;1.35;0.35;;;;;;;12.65;78.78;98373.72;2053763;79;20195;-84
2021/05/17 10:21:27;;;;;;;1.95;0.40;;;;;;;12.83;78.47;98377.53;2056910;79;20165;-82
2021/05/17 10:24:30;;;;;;;1.01;0.31;;;;;;;13.20;80.15;98364.25;2048628;79;20256;-82
2021/05/17 10:27:45;;;;;;;1.58;0.30;;;;;;;13.93;78.27;98360.13;2048735;79;20178;-83
2021/05/17 10:30:48;;;;;;;0.94;0.30;;;;;;;14.38;75.51;98362.88;2044493;77;23009;-82
2021/05/17 10:37:45;;;;;;;3.01;0.40;;;;;;;14.56;73.54;98387.53;2054358;69;20182;-81
2021/05/17 10:40:55;;;;;;;;;;;;;;;14.39;71.80;98394.16;2039394;79;20578;-81
2021/05/17 10:47:27;;;;;;;0.76;0.20;;;;;;;13.84;73.34;98393.47;2032826;77;20312;-80
2021/05/17 10:50:30;;;;;;;2.01;0.31;;;;;;;13.61;72.70;98389.00;2042222;79;20159;-83
2021/05/17 11:03:26;;;;;;;0.99;0.30;;;;;;;14.90;74.09;98371.41;2053705;69;20275;-79
2021/05/17 11:06:29;;;;;;;1.67;0.21;;;;;;;15.49;72.10;98374.31;2042681;79;20312;-79
2021/05/17 11:09:48;;;;;;;1.89;0.36;;;;;;;16.00;70.65;98371.31;2040659;79;20213;-79
2021/05/17 11:12:56;;;;;;;1.75;0.40;;;;;;;16.38;68.11;98368.81;2040556;79;20441;-80
2021/05/17 11:16:15;;;;;;;0.70;0.20;;;;;;;16.59;65.13;98373.09;2042590;76;20754;-80
2021/05/17 11:19:18;;;;;;;1.96;0.40;;;;;;;16.84;63.88;98361.50;2044084;79;20242;-81
2021/05/17 11:22:21;;;;;;;2.21;0.40;;;;;;;17.18;65.95;98366.03;2045154;79;20228;-80
2021/05/17 11:25:45;;;;;;;2.11;0.30;;;;;;;17.57;60.45;98363.25;2046078;79;20197;-80
2021/05/17 11:28:49;;;;;;;1.02;0.30;;;;;;;18.06;62.83;98363.44;2045924;79;20199;-81
2021/05/17 11:32:09;;;;;;;1.41;0.38;;;;;;;18.37;61.21;98355.69;2045212;79;20180;-81
2021/05/17 11:35:12;;;;;;;0.79;0.20;;;;;;;18.24;58.85;98367.75;2045530;79;20265;-80
2021/05/17 11:38:16;;;;;;;1.54;0.36;;;;;;;17.80;57.55;98362.16;2042615;79;20908;-81
2021/05/17 11:41:20;;;;;;;1.27;0.20;;;;;;;17.38;59.34;98354.56;2040085;79;20177;-80
2021/05/17 11:44:26;;;;;;;1.46;0.26;;;;;;;17.43;59.24;98356.06;2039435;79;20240;-79
2021/05/17 11:47:31;;;;;;;1.05;0.20;;;;;;;17.64;60.29;98367.28;2038377;79;20668;-79
2021/05/17 11:50:33;;;;;;;2.00;0.35;;;;;;;17.97;58.98;98358.69;2038810;79;20169;-79
2021/05/17 11:53:45;;;;;;;0.95;0.29;;;;;;;17.76;57.85;98363.22;2037733;79;20165;-79
2021/05/17 11:56:54;;;;;;;0.40;0.16;;;;;;;17.13;58.35;98370.66;2040034;79;20189;-79
2021/05/17 12:00:11;;;;;;;1.92;0.21;;;;;;;16.47;62.80;98376.25;2045043;79;20177;-81
2021/05/17 12:03:14;;;;;;;1.05;0.34;;;;;;;16.31;67.67;98388.31;2043384;76;22518;-80
2021/05/17 12:06:17;;;;;;;0.49;0.29;;;;;;;16.67;67.55;98362.28;2039220;79;20249;-78
2021/05/17 12:09:26;;;;;;;1.35;0.22;;;;;;;16.58;62.31;98362.69;2040637;79;20165;-79
2021/05/17 12:12:29;;;;;;;2.60;0.30;;;;;;;16.44;63.53;98370.28;2038777;79;20182;-78
2021/05/17 12:15:32;;;;;;;2.65;0.30;;;;;;;16.48;61.75;98362.22;2042268;79;20368;-79
2021/05/17 12:18:37;;;;;;;1.76;0.32;;;;;;;16.84;60.36;98369.38;2040876;79;20222;-79
2021/05/17 12:21:40;;;;;;;0.35;0.10;;;;;;;16.88;59.82;98379.66;2038447;79;20193;-79
2021/05/17 12:24:43;;;;;;;0.35;0.10;;;;;;;16.75;58.22;98380.28;2038910;79;20185;-79
2021/05/17 12:27:49;;;;;;;1.41;0.20;;;;;;;16.47;57.90;98384.09;2045653;79;20187;-82
2021/05/17 12:30:52;;;;;;;1.16;0.29;;;;;;;16.05;57.67;98396.47;2049265;76;20201;-81
2021/05/17 12:33:54;;;;;;;3.03;0.17;;;;;;;15.88;57.18;98392.78;2051768;79;20173;-81
2021/05/17 12:36:57;;;;;;;0.34;0.13;;;;;;;15.99;58.70;98405.44;2047920;79;20157;-83
2021/05/17 12:40:14;;;;;;;0.85;0.16;;;;;;;15.94;58.11;98404.75;2050917;79;20193;-82
2021/05/17 12:43:23;;;;;;;0.30;0.13;;;;;;;15.90;59.16;98421.50;2048711;79;20267;-82
2021/05/17 12:46:28;;;;;;;1.98;0.28;;;;;;;15.87;61.13;98409.41;2051421;79;20165;-82
2021/05/17 12:49:52;;;;;;;0.71;0.20;;;;;;;16.06;61.68;98411.25;2050021;79;20191;-84
2021/05/17 12:56:28;;;;;;;1.84;0.20;;;;;;;16.13;60.18;98425.78;2042682;69;20186;-82
2021/05/17 12:59:30;;;;;;;0.30;0.10;;;;;;;16.14;59.90;98432.72;2038697;80;20219;-80
2021/05/17 13:02:33;;;;;;;0.79;0.19;;;;;;;15.65;61.63;98433.00;2036629;78;26380;-82
2021/05/17 13:05:59;;;;;;;1.86;0.20;;;;;;;15.41;65.28;98447.00;2040586;79;20243;-81
2021/05/17 13:09:07;;;;;;;1.40;0.29;;;;;;;15.74;68.36;98439.59;2034722;79;20184;-81
2021/05/17 13:12:09;;;;;;;1.30;0.10;;;;;;;16.04;64.47;98442.75;2036409;80;20188;-81
2021/05/17 13:15:19;;;;;;;0.86;0.20;;;;;;;16.42;62.53;98446.34;2036666;79;20214;-79
2021/05/17 13:18:22;;;;;;;2.14;0.20;;;;;;;16.70;60.81;98425.06;2033612;80;20171;-81
2021/05/17 13:31:44;;;;;;;0.61;0.10;;;;;;;17.44;54.88;98430.41;2033269;80;20222;-83
2021/05/17 13:34:47;;;;;;;0.25;0.20;;;;;;;17.63;56.31;98425.97;2031692;79;20187;-80
2021/05/17 13:37:50;;;;;;;0.63;0.17;;;;;;;17.91;55.16;98412.34;2033094;80;20236;-81
2021/05/17 13:40:52;;;;;;;0.77;0.10;;;;;;;18.13;55.05;98427.88;2033482;80;20186;-80
2021/05/17 13:43:55;;;;;;;0.10;0.10;;;;;;;18.20;54.73;98428.44;2033728;79;20220;-79
2021/05/17 13:47:01;;;;;;;0.79;0.71;;;;;;;18.29;53.33;98428.81;2031667;78;20921;-81
2021/05/17 13:50:07;;;;;;;0.43;0.10;;;;;;;18.45;53.61;98434.13;2033231;80;20158;-80
2021/05/17 13:53:10;;;;;;;0.91;0.10;;;;;;;18.65;53.36;98433.13;2031694;79;20171;-78
2021/05/17 13:56:16;;;;;;;3.09;0.19;;;;;;;18.82;51.75;98437.50;2028181;80;20234;-77
2021/05/17 13:59:19;;;;;;;1.10;0.30;;;;;;;18.63;49.68;98443.72;2029162;79;20504;-82
2021/05/17 14:02:29;;;;;;;0.44;0.10;;;;;;;18.78;51.53;98442.06;2025307;77;204363;-77
2021/05/17 14:05:32;;;;;;;2.26;0.20;;;;;;;18.88;49.36;98435.41;2028987;79;20171;-72
2021/05/17 14:08:35;;;;;;;0.91;0.28;;;;;;;18.86;50.33;98437.28;2029599;79;20219;-71
2021/05/17 14:11:38;;;;;;;0.70;0.24;;;;;;;18.87;49.57;98448.63;2034136;79;20170;-78
2021/05/17 14:14:40;;;;;;;0.56;0.20;;;;;;;18.64;49.92;98432.28;2043235;79;20200;-83
2021/05/17 14:17:43;;;;;;;0.75;0.66;;;;;;;18.54;50.55;98428.41;2035422;78;21283;-82
2021/05/17 14:20:46;;;;;;;1.09;0.40;;;;;;;18.38;50.75;98440.63;2040815;79;20166;-82
2021/05/17 14:23:49;;;;;;;0.40;0.17;;;;;;;18.10;51.15;98422.78;2039288;79;20181;-84
2021/05/17 14:26:51;;;;;;;1.59;0.20;;;;;;;17.73;53.24;98421.97;2044651;79;20186;-82
2021/05/17 14:29:54;;;;;;;3.24;0.74;;;;;;;17.39;54.85;98433.22;2039440;79;20163;-81
2021/05/17 14:32:57;;;;;;;1.48;0.30;;;;;;;16.91;54.85;98439.84;2038843;78;20212;-83
2021/05/17 14:36:01;;;;;;;0.57;0.20;;;;;;;16.52;57.46;98446.81;2040167;79;20178;-83
2021/05/17 14:39:06;;;;;;;1.70;0.45;;;;;;;16.17;58.74;98519.91;2034037;79;20166;-77
2021/05/17 14:42:09;;;;;;;3.56;0.38;;;;;;;15.67;61.45;98528.00;2027134;79;20182;-76
2021/05/17 14:45:14;;;;;;;3.71;0.30;;;;;;;14.93;61.95;98517.69;2027732;79;20547;-77
2021/05/17 14:48:18;;;;;;;3.40;0.39;;;;;;;14.35;64.65;98512.69;2027813;79;20167;-77
2021/05/17 14:51:21;;;;;;;3.16;0.21;;;;;;;13.77;68.97;98516.34;2027654;79;20206;-77
2021/05/17 14:54:24;;;;;;;4.07;0.43;;;;;;;13.53;69.36;98551.88;2027003;79;20186;-76
2021/05/17 14:57:27;;;;;;;3.90;0.30;;;;;;;13.21;71.59;98553.66;2027151;79;21049;-75
2021/05/17 15:00:30;;;;;;;1.04;0.20;;;;;;;12.93;72.32;98539.66;2025710;77;20352;-78
2021/05/17 15:03:33;;;;;;;2.56;0.26;;;;;;;12.86;73.60;98543.31;2026224;79;20206;-79
2021/05/17 15:06:36;;;;;;;1.48;0.30;;;;;;;12.82;75.01;98541.69;2027918;79;20850;-79
2021/05/17 15:09:39;;;;;;;3.96;0.40;;;;;;;12.68;75.76;98547.28;2027932;79;20574;-77
2021/05/17 15:12:48;;;;;;;2.29;0.26;;;;;;;12.61;76.78;98545.72;2027523;79;20198;-76
2021/05/17 15:15:51;;;;;;;1.00;0.30;;;;;;;12.48;77.22;98550.41;2026502;78;20735;-74
2021/05/17 15:18:54;;;;;;;2.72;0.35;;;;;;;12.42;77.88;98555.78;2027340;79;20211;-77